Time;durP1;ratioP1;P1;durP2;ratioP2;P2;SDS_P1;SDS_P2;PMS_P1;PMS_P2;Temp;Humidity;BMP_temperature;BMP_pressure;BME280_temperature;BME280_humidity;BME280_pressure;Samples;Min_cycle;Max_cycle;Signal;HPM_P1;HPM_P2
2023/07/28 00:02:04;;;;;;;10.97;4.83;;;18.30;99.90;;;;;;5076922;28;20276;-69
2023/07/28 00:04:30;;;;;;;9.57;4.53;;;18.30;99.90;;;;;;5091693;28;20020;-69
2023/07/28 00:06:56;;;;;;;12.43;6.23;;;18.30;99.90;;;;;;5093827;28;20415;-69
2023/07/28 00:09:23;;;;;;;12.33;4.97;;;18.30;99.90;;;;;;5094869;28;20102;-69
2023/07/28 00:11:48;;;;;;;;;;;18.30;99.90;;;;;;5076314;28;20027;-69
2023/07/28 00:14:14;;;;;;;11.52;5.35;;;18.40;99.90;;;;;;5095011;28;19954;-69
2023/07/28 00:16:40;;;;;;;10.73;5.73;;;18.30;99.90;;;;;;5093789;28;20127;-70
2023/07/28 00:19:06;;;;;;;8.63;5.17;;;18.30;99.90;;;;;;5094789;28;20028;-70
2023/07/28 00:21:31;;;;;;;14.57;5.57;;;18.30;99.90;;;;;;5094232;28;20032;-70
2023/07/28 00:23:57;;;;;;;9.67;5.43;;;18.30;99.90;;;;;;5095537;28;20467;-70
2023/07/28 00:26:23;;;;;;;15.63;5.97;;;18.30;99.90;;;;;;5095056;28;20020;-69
2023/07/28 00:28:48;;;;;;;8.80;5.37;;;18.30;99.90;;;;;;5092344;28;20031;-69
2023/07/28 00:31:14;;;;;;;11.37;5.43;;;18.30;99.90;;;;;;5093463;28;20059;-70
2023/07/28 00:33:40;;;;;;;10.53;5.20;;;18.30;99.90;;;;;;5093718;28;20020;-69
2023/07/28 00:36:05;;;;;;;11.80;5.33;;;18.30;99.90;;;;;;5092301;28;20032;-69
2023/07/28 00:38:31;;;;;;;18.13;5.73;;;18.30;99.90;;;;;;5094765;28;20032;-69
2023/07/28 00:40:57;;;;;;;7.77;4.67;;;18.30;99.90;;;;;;5085801;28;20401;-70
2023/07/28 00:43:23;;;;;;;10.88;5.05;;;18.30;99.90;;;;;;5094798;28;20423;-70
2023/07/28 00:45:49;;;;;;;14.60;6.10;;;18.30;99.90;;;;;;5091694;28;20028;-69
2023/07/28 00:48:17;;;;;;;10.27;5.60;;;18.30;99.90;;;;;;5094845;28;20314;-84
2023/07/28 00:50:46;;;;;;;14.82;5.47;;;18.30;99.90;;;;;;5074873;28;20032;-70
2023/07/28 00:53:12;;;;;;;7.32;4.70;;;18.30;99.90;;;;;;5095333;28;20024;-70
2023/07/28 00:55:38;;;;;;;8.77;5.07;;;18.30;99.90;;;;;;5092018;28;20337;-79
2023/07/28 00:58:04;;;;;;;10.73;5.70;;;18.30;99.90;;;;;;5092655;28;20036;-69
2023/07/28 01:00:30;;;;;;;11.40;5.13;;;18.30;99.90;;;;;;5084675;28;20435;-70
2023/07/28 01:02:57;;;;;;;13.50;5.85;;;18.30;99.90;;;;;;5083499;28;20105;-70
2023/07/28 01:05:40;;;;;;;8.90;5.10;;;18.30;99.90;;;;;;5075644;28;20384;-69
2023/07/28 01:08:49;;;;;;;17.38;5.85;;;18.30;99.90;;;;;;5053867;28;20059;-70
2023/07/28 01:11:15;;;;;;;11.98;5.70;;;18.30;99.90;;;;;;4993294;28;20038;-70
2023/07/28 01:13:40;;;;;;;12.97;6.70;;;18.30;99.90;;;;;;4996375;28;20329;-69
2023/07/28 01:16:08;;;;;;;9.73;6.20;;;18.40;99.90;;;;;;4988722;28;20085;-70
2023/07/28 01:18:33;;;;;;;10.00;5.72;;;18.40;99.90;;;;;;4997528;28;20501;-69
2023/07/28 01:21:03;;;;;;;9.57;6.20;;;18.30;99.90;;;;;;4993579;28;20174;-70
2023/07/28 01:23:28;;;;;;;13.85;6.75;;;18.40;99.90;;;;;;4997575;28;20046;-70
2023/07/28 01:26:05;;;;;;;14.20;5.93;;;18.40;99.90;;;;;;4999094;28;20341;-70
2023/07/28 01:28:34;;;;;;;14.23;6.00;;;18.40;99.90;;;;;;4977795;28;20433;-70
2023/07/28 01:31:02;;;;;;;12.85;5.57;;;18.40;99.90;;;;;;5000882;28;20029;-71
2023/07/28 01:33:28;;;;;;;14.23;5.72;;;18.40;99.90;;;;;;5006871;28;20042;-70
2023/07/28 01:35:54;;;;;;;9.82;5.60;;;18.40;99.90;;;;;;4988860;28;20417;-70
2023/07/28 01:38:20;;;;;;;11.90;5.53;;;18.40;99.90;;;;;;5001347;28;20060;-71
2023/07/28 01:40:45;;;;;;;13.60;6.27;;;18.40;99.90;;;;;;4992714;28;20077;-70
2023/07/28 01:43:11;;;;;;;15.93;7.17;;;18.40;99.90;;;;;;5003684;28;20481;-70
2023/07/28 01:45:37;;;;;;;10.40;5.87;;;18.40;99.90;;;;;;4999706;28;20070;-70
2023/07/28 01:48:03;;;;;;;12.03;6.37;;;18.40;99.90;;;;;;5082068;28;20020;-70
2023/07/28 01:50:28;;;;;;;13.55;5.70;;;18.40;99.90;;;;;;5081104;28;20039;-70
2023/07/28 01:52:55;;;;;;;10.93;6.47;;;18.40;99.90;;;;;;5073790;28;20028;-70
2023/07/28 01:55:20;;;;;;;18.33;6.15;;;18.40;99.90;;;;;;5074014;28;20315;-80
2023/07/28 01:57:57;;;;;;;13.50;6.87;;;18.40;99.90;;;;;;5078133;28;20035;-70
2023/07/28 02:00:23;;;;;;;13.43;6.47;;;18.40;99.90;;;;;;5092292;28;20048;-70
2023/07/28 02:02:49;;;;;;;16.90;7.40;;;18.40;99.90;;;;;;5093641;28;20429;-72
2023/07/28 02:05:15;;;;;;;15.30;6.65;;;18.40;99.90;;;;;;5092502;28;20039;-70
2023/07/28 02:07:41;;;;;;;14.60;6.97;;;18.40;99.90;;;;;;5093826;28;20055;-70
2023/07/28 02:10:08;;;;;;;14.57;6.40;;;18.40;99.90;;;;;;5096328;28;20069;-69
2023/07/28 02:12:33;;;;;;;15.77;6.40;;;18.40;99.90;;;;;;5080352;28;20052;-69
2023/07/28 02:15:00;;;;;;;18.37;6.73;;;18.40;99.90;;;;;;5090618;28;20348;-76
2023/07/28 02:17:25;;;;;;;16.17;6.28;;;18.40;99.90;;;;;;5084077;28;20613;-69
2023/07/28 02:19:51;;;;;;;20.40;5.97;;;18.40;99.90;;;;;;5086686;28;20095;-81
2023/07/28 02:22:17;;;;;;;14.93;6.67;;;18.40;99.90;;;;;;5097727;28;20325;-70
2023/07/28 02:24:42;;;;;;;17.77;6.87;;;18.40;99.90;;;;;;5095112;28;20036;-70
2023/07/28 02:27:08;;;;;;;14.97;6.27;;;18.40;99.90;;;;;;5097660;28;20052;-69
2023/07/28 02:29:34;;;;;;;17.63;6.63;;;18.40;99.90;;;;;;5095330;28;20020;-70
2023/07/28 02:31:59;;;;;;;16.27;6.43;;;18.40;99.90;;;;;;5097601;28;20099;-70
2023/07/28 02:34:25;;;;;;;16.40;6.33;;;18.40;99.90;;;;;;5074851;28;20032;-69
2023/07/28 02:36:51;;;;;;;20.13;6.33;;;18.40;99.90;;;;;;5095237;28;20036;-69
2023/07/28 02:39:16;;;;;;;20.13;7.27;;;18.40;99.90;;;;;;5075559;28;20047;-69
2023/07/28 02:41:42;;;;;;;13.37;6.10;;;18.40;99.90;;;;;;5097675;28;20115;-70
2023/07/28 02:44:08;;;;;;;18.75;6.35;;;18.40;99.90;;;;;;5095482;28;20039;-69
2023/07/28 02:46:34;;;;;;;15.57;7.23;;;18.40;99.90;;;;;;5096775;28;20043;-69
2023/07/28 02:48:59;;;;;;;15.37;6.27;;;18.40;99.90;;;;;;5098217;28;20020;-71
2023/07/28 02:51:25;;;;;;;12.53;5.80;;;18.40;99.90;;;;;;5096026;28;20019;-69
2023/07/28 02:53:51;;;;;;;11.27;5.90;;;18.40;99.90;;;;;;5096637;28;20023;-70
2023/07/28 02:56:16;;;;;;;21.73;6.27;;;18.50;99.90;;;;;;5096761;28;20426;-69
2023/07/28 02:58:42;;;;;;;11.60;5.73;;;18.50;99.90;;;;;;5098075;28;20027;-69
2023/07/28 03:01:08;;;;;;;13.50;6.03;;;18.50;99.90;;;;;;5096035;28;20101;-69
2023/07/28 03:03:33;;;;;;;14.13;5.87;;;18.50;99.90;;;;;;5097483;28;20024;-69
2023/07/28 03:05:59;;;;;;;15.47;6.80;;;18.50;99.90;;;;;;5096772;28;20407;-69
2023/07/28 03:08:25;;;;;;;18.57;7.20;;;18.50;99.90;;;;;;5095612;28;20043;-69
2023/07/28 03:10:50;;;;;;;12.67;5.87;;;18.50;99.90;;;;;;5097737;28;20794;-69
2023/07/28 03:13:16;;;;;;;21.07;6.53;;;18.50;99.90;;;;;;5097002;28;20035;-70
2023/07/28 03:15:41;;;;;;;15.23;6.50;;;18.50;99.90;;;;;;5096425;28;20058;-80
2023/07/28 03:18:07;;;;;;;12.43;5.37;;;18.50;99.90;;;;;;5095089;28;20678;-70
2023/07/28 03:20:33;;;;;;;12.70;6.53;;;18.50;99.90;;;;;;5096455;28;20081;-69
2023/07/28 03:22:58;;;;;;;23.33;6.87;;;18.50;99.90;;;;;;5097293;28;20032;-69
2023/07/28 03:25:24;;;;;;;16.57;5.33;;;18.50;99.90;;;;;;5095316;28;20379;-81
2023/07/28 03:27:50;;;;;;;14.97;6.40;;;18.50;99.90;;;;;;5096754;28;20311;-69
2023/07/28 03:30:15;;;;;;;12.57;6.93;;;18.50;99.90;;;;;;5095902;28;20020;-69
2023/07/28 03:32:41;;;;;;;18.57;6.07;;;18.50;99.90;;;;;;5096897;28;20111;-69
2023/07/28 03:35:08;;;;;;;14.13;6.73;;;18.50;99.90;;;;;;5096480;28;20028;-69
2023/07/28 03:37:33;;;;;;;14.02;6.63;;;18.50;99.90;;;;;;5095023;28;20375;-70
2023/07/28 03:39:59;;;;;;;11.80;6.10;;;18.50;99.90;;;;;;5097117;28;20111;-69
2023/07/28 03:42:26;;;;;;;15.20;6.25;;;18.60;99.90;;;;;;5096639;28;20032;-81
2023/07/28 03:44:52;;;;;;;15.95;6.18;;;18.50;99.90;;;;;;5096988;28;20031;-69
2023/07/28 03:47:17;;;;;;;18.37;6.50;;;18.60;99.90;;;;;;5094948;28;20032;-70
2023/07/28 03:49:43;;;;;;;13.37;6.60;;;18.60;99.90;;;;;;5078937;28;20103;-69
2023/07/28 03:52:09;;;;;;;19.93;7.63;;;18.60;99.90;;;;;;5097282;28;20024;-69
2023/07/28 03:54:34;;;;;;;14.70;6.37;;;18.60;99.90;;;;;;5096254;28;20315;-70
2023/07/28 03:57:00;;;;;;;13.73;6.70;;;18.60;99.90;;;;;;5095637;28;20028;-69
2023/07/28 03:59:26;;;;;;;13.47;5.70;;;18.60;99.90;;;;;;5095573;28;20334;-81
2023/07/28 04:01:52;;;;;;;15.33;5.97;;;18.60;99.90;;;;;;5096560;28;20058;-70
2023/07/28 04:04:18;;;;;;;15.90;6.15;;;18.50;99.90;;;;;;5087856;28;20132;-70
2023/07/28 04:06:52;;;;;;;15.67;5.30;;;18.60;99.90;;;;;;5085289;28;20110;-69
2023/07/28 04:09:18;;;;;;;17.90;5.47;;;18.60;99.90;;;;;;5061863;28;20044;-69
2023/07/28 04:11:44;;;;;;;14.80;6.77;;;18.60;99.90;;;;;;5078032;28;20102;-70
2023/07/28 04:14:09;;;;;;;21.30;6.17;;;18.60;99.90;;;;;;5093137;28;20050;-69
2023/07/28 04:16:35;;;;;;;16.50;7.47;;;18.60;99.90;;;;;;5087130;28;20338;-83
2023/07/28 04:19:01;;;;;;;15.93;5.57;;;18.60;99.90;;;;;;5081070;28;20032;-69
2023/07/28 04:21:27;;;;;;;11.40;5.60;;;18.60;99.90;;;;;;5084204;28;20402;-69
2023/07/28 04:23:53;;;;;;;13.18;6.10;;;18.60;99.90;;;;;;5086605;28;20039;-70
2023/07/28 04:26:19;;;;;;;14.45;5.20;;;18.70;99.90;;;;;;5088600;28;20101;-69
2023/07/28 04:28:44;;;;;;;14.70;5.43;;;18.60;99.90;;;;;;5087212;28;20063;-70
2023/07/28 04:31:11;;;;;;;13.00;6.87;;;18.70;99.90;;;;;;5086696;28;20044;-70
2023/07/28 04:33:40;;;;;;;14.27;5.20;;;18.70;99.90;;;;;;5090084;28;20315;-81
2023/07/28 04:36:06;;;;;;;12.23;5.25;;;18.70;99.90;;;;;;5074570;28;20032;-70
2023/07/28 04:38:31;;;;;;;13.47;6.17;;;18.70;99.90;;;;;;5093215;28;20036;-70
2023/07/28 04:40:57;;;;;;;10.10;5.40;;;18.80;99.90;;;;;;5074991;28;20028;-70
2023/07/28 04:43:23;;;;;;;19.73;7.13;;;18.80;99.90;;;;;;5082706;28;20024;-70
2023/07/28 04:45:49;;;;;;;10.73;5.77;;;18.80;99.90;;;;;;5093613;28;20036;-70
2023/07/28 04:48:14;;;;;;;17.57;6.33;;;18.80;99.90;;;;;;5088605;28;20028;-70
2023/07/28 04:50:40;;;;;;;16.43;6.37;;;18.80;99.90;;;;;;5090892;28;20020;-70
2023/07/28 04:53:05;;;;;;;16.67;6.40;;;18.80;99.90;;;;;;5084397;28;20406;-70
2023/07/28 04:55:31;;;;;;;21.93;7.23;;;18.80;99.90;;;;;;5081597;28;20024;-70
2023/07/28 04:57:57;;;;;;;13.67;6.60;;;18.80;99.90;;;;;;5083177;28;20033;-70
2023/07/28 05:00:23;;;;;;;13.37;6.33;;;18.90;99.90;;;;;;5066874;28;20335;-70
2023/07/28 05:02:49;;;;;;;15.80;6.45;;;18.90;99.90;;;;;;5052457;28;20028;-69
2023/07/28 05:05:15;;;;;;;12.90;6.72;;;18.90;99.90;;;;;;5069271;28;20044;-69
2023/07/28 05:07:40;;;;;;;16.70;6.60;;;18.90;99.90;;;;;;5072205;28;20074;-70
2023/07/28 05:10:07;;;;;;;14.53;6.33;;;18.90;99.90;;;;;;5052129;28;20049;-70
2023/07/28 05:12:33;;;;;;;17.38;6.57;;;19.00;99.90;;;;;;5053676;28;20431;-69
2023/07/28 05:14:59;;;;;;;12.52;6.18;;;19.00;99.90;;;;;;5063357;28;20082;-70
2023/07/28 05:17:24;;;;;;;17.00;6.60;;;19.00;99.90;;;;;;5073492;28;20399;-82
2023/07/28 05:19:51;;;;;;;18.50;7.13;;;19.00;99.90;;;;;;5069789;28;20036;-69
2023/07/28 05:22:17;;;;;;;18.55;6.55;;;19.00;99.90;;;;;;5068680;28;20020;-69
2023/07/28 05:24:44;;;;;;;15.98;7.80;;;19.00;99.90;;;;;;5058961;28;20033;-70
2023/07/28 05:27:10;;;;;;;18.60;6.63;;;19.10;99.90;;;;;;5065951;28;20016;-70
2023/07/28 05:29:36;;;;;;;19.27;7.13;;;19.10;99.90;;;;;;5056788;28;20115;-70
2023/07/28 05:32:01;;;;;;;18.90;8.03;;;19.10;99.90;;;;;;5074211;28;20112;-69
2023/07/28 05:34:27;;;;;;;17.50;8.00;;;19.20;99.90;;;;;;5074312;28;20024;-82
2023/07/28 05:36:53;;;;;;;18.47;7.47;;;19.20;99.90;;;;;;5072727;28;20036;-70
2023/07/28 05:39:19;;;;;;;15.67;6.63;;;19.10;99.90;;;;;;5072543;28;20032;-69
2023/07/28 05:41:44;;;;;;;17.67;8.17;;;19.20;99.90;;;;;;5074683;28;20261;-69
2023/07/28 05:44:10;;;;;;;19.17;7.53;;;19.10;99.90;;;;;;5071287;28;20032;-70
2023/07/28 05:46:36;;;;;;;19.27;7.20;;;19.10;99.90;;;;;;5070225;28;20109;-70
2023/07/28 05:49:02;;;;;;;22.57;7.93;;;19.10;99.90;;;;;;5071586;28;20056;-70
2023/07/28 05:51:27;;;;;;;19.10;7.53;;;19.20;99.90;;;;;;5074792;28;20017;-80
2023/07/28 05:53:54;;;;;;;15.73;6.43;;;19.20;99.90;;;;;;5074792;28;20025;-70
2023/07/28 05:56:20;;;;;;;18.65;6.82;;;19.20;99.90;;;;;;5069011;28;20040;-71
2023/07/28 05:58:47;;;;;;;17.92;7.32;;;19.20;99.90;;;;;;5064722;28;20434;-70
2023/07/28 06:01:13;;;;;;;14.85;7.55;;;19.20;99.90;;;;;;5064766;28;20554;-69
2023/07/28 06:03:38;;;;;;;15.90;6.60;;;19.20;99.90;;;;;;5094598;28;20036;-69
2023/07/28 06:06:04;;;;;;;12.73;6.55;;;19.20;99.90;;;;;;5089340;28;20073;-70
2023/07/28 06:08:30;;;;;;;15.47;6.67;;;19.20;99.90;;;;;;5089259;28;20090;-69
2023/07/28 06:10:55;;;;;;;16.23;6.27;;;19.20;99.90;;;;;;5094538;28;20028;-70
2023/07/28 06:13:21;;;;;;;22.20;8.13;;;19.20;99.90;;;;;;5091700;28;20487;-70
2023/07/28 06:15:47;;;;;;;17.20;6.17;;;19.20;99.90;;;;;;5094469;28;20031;-70
2023/07/28 06:18:13;;;;;;;19.13;6.47;;;19.20;99.90;;;;;;5092166;28;20471;-84
2023/07/28 06:20:42;;;;;;;18.33;6.97;;;19.20;99.90;;;;;;5092487;28;20032;-70
2023/07/28 06:23:08;;;;;;;14.77;7.15;;;19.20;99.90;;;;;;5093664;28;20546;-69
2023/07/28 06:25:34;;;;;;;21.50;7.63;;;19.20;99.90;;;;;;5087918;28;20024;-70
2023/07/28 06:28:00;;;;;;;13.93;7.03;;;19.20;99.90;;;;;;5091166;28;20055;-70
2023/07/28 06:30:26;;;;;;;12.32;6.22;;;19.20;99.90;;;;;;5094325;28;20027;-69
2023/07/28 06:32:51;;;;;;;17.47;7.10;;;19.20;99.90;;;;;;5091219;28;20352;-69
2023/07/28 06:35:17;;;;;;;23.57;6.63;;;19.20;99.90;;;;;;5094323;28;20387;-82
2023/07/28 06:37:43;;;;;;;16.33;7.50;;;19.30;99.90;;;;;;5091758;28;20020;-70
2023/07/28 06:40:10;;;;;;;20.13;7.00;;;19.30;99.90;;;;;;5094326;28;20028;-69
2023/07/28 06:42:36;;;;;;;;;;;19.30;99.90;;;;;;5091189;28;20024;-69
2023/07/28 06:45:03;;;;;;;15.13;6.40;;;19.30;99.90;;;;;;5093154;28;19908;-69
2023/07/28 06:47:29;;;;;;;;;;;19.30;99.90;;;;;;5059584;28;20431;-70
2023/07/28 06:49:54;;;;;;;18.50;7.10;;;19.30;99.90;;;;;;5090847;28;19910;-70
2023/07/28 06:52:20;;;;;;;18.20;7.37;;;19.30;99.90;;;;;;5081996;28;20032;-71
2023/07/28 06:54:47;;;;;;;21.00;6.90;;;19.30;99.90;;;;;;5086708;28;20099;-70
2023/07/28 06:57:13;;;;;;;19.33;7.45;;;19.30;99.90;;;;;;5092444;28;20028;-70
2023/07/28 06:59:38;;;;;;;17.23;7.80;;;19.30;99.90;;;;;;5079000;28;20031;-70
2023/07/28 07:02:05;;;;;;;15.23;6.70;;;19.20;99.90;;;;;;5097114;28;20055;-70
2023/07/28 07:04:31;;;;;;;;;;;19.20;99.90;;;;;;5097738;28;20093;-70
2023/07/28 07:06:56;;;;;;;18.02;7.05;;;19.30;99.90;;;;;;5097471;28;19912;-70
2023/07/28 07:09:22;;;;;;;15.50;6.63;;;19.30;99.90;;;;;;5096812;28;20040;-69
2023/07/28 07:11:48;;;;;;;14.93;7.27;;;19.30;99.90;;;;;;5092714;28;20421;-70
2023/07/28 07:14:14;;;;;;;18.02;7.95;;;19.30;99.90;;;;;;5097699;28;20025;-70
2023/07/28 07:16:40;;;;;;;13.70;7.88;;;19.30;99.90;;;;;;5097033;28;20059;-70
2023/07/28 07:19:05;;;;;;;12.48;6.43;;;19.40;99.90;;;;;;5097071;28;20063;-84
2023/07/28 07:21:31;;;;;;;12.27;6.67;;;19.40;99.90;;;;;;5096975;28;20035;-70
2023/07/28 07:23:57;;;;;;;14.93;7.40;;;19.40;99.90;;;;;;5092353;28;20020;-70
2023/07/28 07:26:22;;;;;;;14.30;6.50;;;19.40;99.90;;;;;;5096579;28;20024;-71
2023/07/28 07:28:48;;;;;;;13.03;6.47;;;19.40;99.90;;;;;;5097272;28;20020;-70
2023/07/28 07:31:14;;;;;;;15.23;6.83;;;19.40;99.90;;;;;;5075437;28;20422;-70
2023/07/28 07:33:40;;;;;;;11.05;6.30;;;19.50;99.90;;;;;;5095323;28;20077;-71
2023/07/28 07:36:15;;;;;;;16.73;7.00;;;19.40;99.90;;;;;;5096673;28;20036;-72
2023/07/28 07:38:42;;;;;;;11.77;6.85;;;19.40;99.90;;;;;;5078942;28;20024;-69
2023/07/28 07:41:08;;;;;;;17.42;7.00;;;19.50;99.90;;;;;;5096974;28;20434;-70
2023/07/28 07:43:34;;;;;;;;;;;19.50;99.90;;;;;;5097221;28;20423;-83
2023/07/28 07:46:00;;;;;;;11.68;5.45;;;19.50;99.90;;;;;;5095597;28;19915;-69
2023/07/28 07:48:26;;;;;;;14.77;6.07;;;19.50;99.90;;;;;;5089419;28;20032;-70
2023/07/28 07:50:52;;;;;;;13.27;5.67;;;19.50;99.90;;;;;;5086755;28;20438;-70
2023/07/28 07:53:17;;;;;;;12.95;5.70;;;19.50;99.90;;;;;;5093694;28;20426;-82
2023/07/28 07:55:43;;;;;;;11.27;5.80;;;19.60;99.90;;;;;;5095830;28;20085;-69
2023/07/28 07:58:09;;;;;;;10.65;5.03;;;19.60;99.90;;;;;;5087744;28;20032;-70
2023/07/28 08:00:38;;;;;;;11.07;5.57;;;19.60;99.90;;;;;;5092290;28;20032;-69
2023/07/28 08:03:05;;;;;;;12.93;5.53;;;19.70;99.90;;;;;;5096066;28;20028;-70
2023/07/28 08:05:31;;;;;;;8.65;5.30;;;19.60;99.90;;;;;;5091726;28;20028;-74
2023/07/28 08:07:57;;;;;;;11.00;5.70;;;19.60;99.90;;;;;;5094559;28;20326;-70
2023/07/28 08:10:23;;;;;;;10.65;4.97;;;19.70;99.90;;;;;;5095277;28;20114;-71
2023/07/28 08:12:49;;;;;;;9.68;5.50;;;19.80;99.90;;;;;;5094892;28;20036;-70
2023/07/28 08:15:14;;;;;;;7.03;4.73;;;19.70;99.90;;;;;;5094164;28;20617;-70
2023/07/28 08:17:40;;;;;;;12.93;5.77;;;19.70;99.90;;;;;;5080912;28;20266;-70
2023/07/28 08:20:07;;;;;;;10.80;5.30;;;19.70;99.90;;;;;;5093352;28;20024;-82
2023/07/28 08:22:33;;;;;;;11.27;5.60;;;19.80;99.90;;;;;;5085221;28;20296;-70
2023/07/28 08:24:59;;;;;;;12.30;5.77;;;19.90;99.90;;;;;;5087696;28;20035;-69
2023/07/28 08:27:25;;;;;;;12.33;5.93;;;19.90;99.90;;;;;;5088343;28;20073;-81
2023/07/28 08:29:50;;;;;;;7.70;5.27;;;19.90;99.90;;;;;;5091778;28;20123;-70
2023/07/28 08:32:16;;;;;;;6.83;4.77;;;20.00;99.90;;;;;;5094216;28;20327;-85
2023/07/28 08:34:42;;;;;;;8.55;4.75;;;20.00;99.90;;;;;;5085136;28;20048;-71
2023/07/28 08:37:08;;;;;;;9.17;4.80;;;20.00;99.90;;;;;;5082694;28;20063;-70
2023/07/28 08:39:34;;;;;;;11.27;5.38;;;20.10;99.90;;;;;;5093185;28;20055;-69
2023/07/28 08:42:01;;;;;;;11.00;4.73;;;20.20;99.90;;;;;;5095647;28;20119;-70
2023/07/28 08:44:30;;;;;;;10.02;5.13;;;20.30;99.90;;;;;;5090828;28;20036;-80
2023/07/28 08:46:55;;;;;;;10.75;5.70;;;20.40;99.90;;;;;;5093097;28;20032;-69
2023/07/28 08:49:21;;;;;;;11.50;5.57;;;20.40;99.90;;;;;;5075236;28;20050;-79
2023/07/28 08:51:50;;;;;;;11.80;5.37;;;20.50;99.90;;;;;;5095403;28;20024;-70
2023/07/28 08:54:16;;;;;;;10.18;4.65;;;20.60;99.90;;;;;;5094735;28;20371;-79
2023/07/28 08:56:45;;;;;;;6.05;4.13;;;20.70;99.90;;;;;;5092009;28;20031;-70
2023/07/28 08:59:10;;;;;;;8.88;4.65;;;20.80;99.90;;;;;;5092836;28;20555;-70
2023/07/28 09:01:40;;;;;;;10.40;5.30;;;20.80;99.90;;;;;;5076511;28;20150;-69
2023/07/28 09:04:10;;;;;;;9.35;5.38;;;20.90;99.90;;;;;;5075963;28;20028;-69
2023/07/28 09:06:36;;;;;;;11.43;6.10;;;20.90;99.90;;;;;;5076548;28;20028;-69
2023/07/28 09:09:06;;;;;;;8.83;5.70;;;20.90;99.90;;;;;;5094193;28;20039;-70
2023/07/28 09:11:32;;;;;;;11.02;6.25;;;20.90;99.90;;;;;;5091020;28;20017;-70
2023/07/28 09:14:00;;;;;;;13.25;5.93;;;20.90;99.90;;;;;;5076465;28;20045;-77
2023/07/28 09:16:28;;;;;;;9.32;5.93;;;20.90;99.90;;;;;;5081442;28;20090;-85
2023/07/28 09:19:07;;;;;;;8.88;5.28;;;20.80;99.90;;;;;;5078093;28;20032;-70
2023/07/28 09:21:33;;;;;;;9.18;5.57;;;20.80;99.90;;;;;;5088361;28;20038;-70
2023/07/28 09:24:06;;;;;;;;;;;20.70;99.90;;;;;;5078998;28;20372;-71
2023/07/28 09:26:42;;;;;;;11.20;6.15;;;20.70;99.90;;;;;;5088649;28;19922;-69
2023/07/28 09:29:19;;;;;;;7.93;5.15;;;20.70;99.90;;;;;;5083721;28;20024;-79
2023/07/28 09:31:47;;;;;;;10.10;5.85;;;20.80;99.90;;;;;;5087257;28;20547;-79
2023/07/28 09:34:22;;;;;;;7.50;5.32;;;20.90;99.90;;;;;;5090424;28;20319;-69
2023/07/28 09:36:49;;;;;;;9.80;5.35;;;21.10;99.90;;;;;;5087077;28;20043;-80
2023/07/28 09:39:14;;;;;;;8.75;5.22;;;21.20;99.90;;;;;;5068598;28;20454;-70
2023/07/28 09:41:40;;;;;;;7.47;4.67;;;21.30;99.90;;;;;;5091559;28;20033;-71
2023/07/28 09:44:06;;;;;;;7.13;4.70;;;21.60;99.90;;;;;;5090480;28;20027;-71
2023/07/28 09:46:38;;;;;;;6.00;4.32;;;22.00;99.90;;;;;;5085922;28;20031;-70
2023/07/28 09:49:10;;;;;;;7.68;4.30;;;22.20;99.90;;;;;;5085259;28;20029;-70
2023/07/28 09:51:37;;;;;;;9.35;4.28;;;22.30;99.90;;;;;;5094527;28;20460;-79
2023/07/28 09:54:14;;;;;;;8.20;3.92;;;22.30;99.90;;;;;;5088089;28;20074;-70
2023/07/28 09:56:43;;;;;;;10.32;4.07;;;22.50;99.90;;;;;;5090763;28;20085;-69
2023/07/28 09:59:12;;;;;;;4.63;3.50;;;22.60;99.90;;;;;;5092147;28;20046;-72
2023/07/28 10:01:39;;;;;;;6.22;3.80;;;22.50;99.90;;;;;;5093794;28;20036;-69
2023/07/28 10:04:05;;;;;;;6.88;3.90;;;22.40;99.90;;;;;;5081536;28;20445;-69
2023/07/28 10:06:33;;;;;;;6.03;4.50;;;22.20;99.90;;;;;;5089708;28;20032;-88
2023/07/28 10:08:59;;;;;;;4.40;3.38;;;22.10;99.90;;;;;;5090571;28;20415;-69
2023/07/28 10:11:27;;;;;;;6.45;3.13;;;21.90;99.90;;;;;;5092581;28;20042;-69
2023/07/28 10:13:54;;;;;;;4.57;3.28;;;21.90;99.90;;;;;;5092370;28;20077;-69
2023/07/28 10:16:29;;;;;;;6.25;3.78;;;21.80;99.90;;;;;;5090538;28;20352;-70
2023/07/28 10:18:55;;;;;;;4.28;2.67;;;21.80;99.90;;;;;;5088601;28;20024;-70
2023/07/28 10:21:20;;;;;;;5.63;3.20;;;21.80;99.90;;;;;;5086768;28;20466;-69
2023/07/28 10:23:55;;;;;;;5.87;3.10;;;21.80;99.90;;;;;;5090155;28;20059;-68
2023/07/28 10:26:41;;;;;;;6.65;3.28;;;21.90;99.90;;;;;;5066580;28;20099;-70
2023/07/28 10:29:24;;;;;;;5.63;3.03;;;22.10;99.90;;;;;;5086779;28;20024;-70
2023/07/28 10:31:56;;;;;;;5.30;2.63;;;22.20;99.90;;;;;;5090714;28;20054;-70
2023/07/28 10:34:22;;;;;;;3.80;2.42;;;22.20;99.90;;;;;;5090357;28;20032;-70
2023/07/28 10:36:57;;;;;;;7.75;2.63;;;22.30;99.90;;;;;;5093613;28;20031;-70
2023/07/28 10:39:23;;;;;;;7.38;3.63;;;22.30;99.90;;;;;;5077358;28;20035;-70
2023/07/28 10:42:04;;;;;;;5.80;3.30;;;22.30;99.90;;;;;;5094949;28;20080;-71
2023/07/28 10:44:31;;;;;;;6.43;2.78;;;22.40;99.90;;;;;;5092030;28;20032;-70
2023/07/28 10:46:57;;;;;;;4.53;3.28;;;22.40;99.90;;;;;;5088597;28;20028;-70
2023/07/28 10:49:26;;;;;;;;;;;22.50;99.90;;;;;;5097089;28;20114;-71
2023/07/28 10:51:52;;;;;;;3.88;2.83;;;22.50;99.90;;;;;;5089226;28;19916;-70
2023/07/28 10:54:19;;;;;;;5.83;3.00;;;22.50;99.90;;;;;;5086526;28;20036;-69
2023/07/28 10:56:47;;;;;;;4.40;2.90;;;22.50;99.90;;;;;;5097810;28;20027;-83
2023/07/28 10:59:12;;;;;;;3.72;2.75;;;22.40;99.90;;;;;;5090005;28;20478;-71
2023/07/28 11:01:40;;;;;;;3.60;2.57;;;22.40;99.90;;;;;;5091793;28;20182;-70
2023/07/28 11:04:19;;;;;;;4.22;3.15;;;22.50;99.90;;;;;;5088688;28;20291;-69
2023/07/28 11:06:49;;;;;;;5.10;3.40;;;22.70;99.90;;;;;;5095860;28;20028;-71
2023/07/28 11:09:19;;;;;;;7.30;3.47;;;22.90;99.90;;;;;;5096714;28;20062;-70
2023/07/28 11:11:46;;;;;;;5.88;3.65;;;23.00;99.90;;;;;;5096543;28;20095;-70
2023/07/28 11:14:12;;;;;;;6.57;2.85;;;22.90;99.90;;;;;;5082438;28;20169;-75
2023/07/28 11:16:41;;;;;;;4.03;2.70;;;23.00;99.90;;;;;;5099747;28;20359;-69
2023/07/28 11:19:11;;;;;;;8.25;2.75;;;23.10;99.90;;;;;;5100815;28;20119;-81
2023/07/28 11:21:41;;;;;;;4.05;2.78;;;23.00;99.90;;;;;;5098579;28;20027;-69
2023/07/28 11:24:11;;;;;;;7.55;2.95;;;22.90;99.90;;;;;;5100472;28;20028;-69
2023/07/28 11:26:38;;;;;;;7.03;2.60;;;22.90;99.90;;;;;;5096379;28;20027;-83
2023/07/28 11:29:04;;;;;;;6.53;2.85;;;22.90;99.90;;;;;;5100279;28;20066;-70
2023/07/28 11:31:30;;;;;;;;;;;22.90;99.90;;;;;;5103184;28;20032;-70
2023/07/28 11:33:56;;;;;;;8.05;3.20;;;22.90;99.90;;;;;;5100311;28;20053;-70
2023/07/28 11:36:31;;;;;;;7.78;3.10;;;23.00;99.90;;;;;;5098748;28;20059;-70
2023/07/28 11:39:01;;;;;;;7.10;3.03;;;23.10;99.90;;;;;;5098780;28;20023;-69
2023/07/28 11:41:27;;;;;;;7.60;3.47;;;23.10;99.90;;;;;;5100081;28;20057;-70
2023/07/28 11:43:53;;;;;;;9.02;3.53;;;23.00;99.90;;;;;;5099312;28;20028;-70
2023/07/28 11:46:36;;;;;;;7.10;2.78;;;23.00;99.90;;;;;;5094603;28;20088;-70
2023/07/28 11:49:21;;;;;;;8.52;3.15;;;23.20;99.90;;;;;;5074497;28;20088;-71
2023/07/28 11:51:49;;;;;;;8.60;3.38;;;23.30;99.90;;;;;;5092939;28;20283;-70
2023/07/28 11:54:16;;;;;;;4.80;2.90;;;23.40;99.90;;;;;;5088736;28;20032;-69
2023/07/28 11:56:47;;;;;;;5.57;2.63;;;23.50;99.90;;;;;;5091257;28;20012;-70
2023/07/28 11:59:15;;;;;;;4.85;2.22;;;23.40;99.90;;;;;;5095710;28;20024;-69
2023/07/28 12:01:56;;;;;;;7.70;3.20;;;23.40;99.90;;;;;;5088113;28;20439;-71
2023/07/28 12:04:22;;;;;;;4.90;2.80;;;23.40;99.90;;;;;;5096063;28;20410;-70
2023/07/28 12:07:06;;;;;;;7.78;3.20;;;23.40;99.90;;;;;;5096241;28;20284;-84
2023/07/28 12:09:48;;;;;;;8.98;4.00;;;23.40;99.90;;;;;;5095641;28;20024;-69
2023/07/28 12:12:16;;;;;;;3.55;2.47;;;23.40;99.90;;;;;;5088431;28;20013;-70
2023/07/28 12:14:42;;;;;;;5.18;2.67;;;23.40;99.90;;;;;;5095813;28;20048;-69
2023/07/28 12:17:37;;;;;;;5.07;2.45;;;23.40;99.90;;;;;;5078279;28;20669;-69
2023/07/28 12:20:10;;;;;;;3.47;2.30;;;23.30;99.90;;;;;;5071312;28;20097;-70
2023/07/28 12:22:40;;;;;;;8.95;2.90;;;23.30;99.90;;;;;;5077800;28;20035;-80
2023/07/28 12:25:06;;;;;;;4.72;2.15;;;23.20;99.90;;;;;;5091314;28;20415;-80
2023/07/28 12:27:32;;;;;;;3.90;2.40;;;23.20;99.90;;;;;;5095809;28;20028;-83
2023/07/28 12:29:58;;;;;;;4.53;2.50;;;23.20;99.90;;;;;;5094511;28;20403;-70
2023/07/28 12:32:24;;;;;;;6.93;2.42;;;23.20;99.90;;;;;;5091376;28;20105;-70
2023/07/28 12:34:50;;;;;;;6.05;2.22;;;23.20;99.90;;;;;;5094148;28;20407;-69
2023/07/28 12:37:17;;;;;;;3.40;2.40;;;23.20;99.90;;;;;;5090302;28;20066;-70
2023/07/28 12:39:43;;;;;;;6.63;2.20;;;23.20;99.90;;;;;;5095378;28;20330;-70
2023/07/28 12:42:10;;;;;;;4.47;2.47;;;23.40;99.90;;;;;;5095330;28;20106;-69
2023/07/28 12:44:37;;;;;;;4.75;2.08;;;23.50;99.90;;;;;;5095435;28;20314;-86